createdAt,value
2022-10-04T00:01:58.390Z,65.04
2022-10-04T00:04:44.474Z,64.89
2022-10-04T00:07:13.611Z,65.00
2022-10-04T00:09:47.832Z,64.92
2022-10-04T00:12:38.139Z,65.04
2022-10-04T00:15:25.794Z,64.93
2022-10-04T00:18:21.479Z,64.97
2022-10-04T00:20:51.048Z,65.12
2022-10-04T00:23:23.348Z,65.27
2022-10-04T00:25:51.091Z,65.53
2022-10-04T00:28:20.812Z,65.44
2022-10-04T00:31:09.531Z,65.59
2022-10-04T00:33:38.627Z,65.63
2022-10-04T00:36:23.791Z,65.74
2022-10-04T00:39:08.486Z,65.33
2022-10-04T00:41:54.350Z,65.58
2022-10-04T00:44:38.985Z,65.32
2022-10-04T00:47:21.446Z,65.55
2022-10-04T00:49:51.591Z,65.58
2022-10-04T00:52:26.375Z,65.63
2022-10-04T00:54:57.969Z,66.12
2022-10-04T00:57:29.755Z,65.64
2022-10-04T00:59:59.570Z,65.89
2022-10-04T01:02:29.828Z,65.84
2022-10-04T01:05:10.636Z,66.08
2022-10-04T01:07:46.482Z,65.89
2022-10-04T01:10:25.413Z,65.83
2022-10-04T01:13:04.488Z,65.93
2022-10-04T01:15:56.638Z,65.95
2022-10-04T01:18:22.923Z,66.07
2022-10-04T01:21:03.578Z,66.04
2022-10-04T01:23:45.712Z,65.89
2022-10-04T01:26:30.329Z,65.82
2022-10-04T01:28:58.936Z,66.11
2022-10-04T01:31:29.811Z,66.07
2022-10-04T01:33:56.829Z,65.92
2022-10-04T01:36:23.656Z,66.11
2022-10-04T01:38:50.820Z,66.27
2022-10-04T01:41:25.263Z,66.12
2022-10-04T01:43:58.326Z,66.33
2022-10-04T01:46:33.426Z,66.30
2022-10-04T01:49:11.807Z,66.06
2022-10-04T01:51:49.912Z,66.30
2022-10-04T01:54:20.446Z,66.37
2022-10-04T01:56:55.874Z,66.08
2022-10-04T01:59:27.996Z,66.03
2022-10-04T02:02:05.704Z,66.18
2022-10-04T02:04:35.574Z,66.22
2022-10-04T02:07:04.203Z,66.15
2022-10-04T02:09:34.075Z,66.19
2022-10-04T02:12:01.535Z,66.30
2022-10-04T02:14:33.143Z,66.11
2022-10-04T02:17:03.119Z,66.08
2022-10-04T02:19:39.543Z,66.07
2022-10-04T02:22:09.174Z,65.68
2022-10-04T02:24:41.103Z,66.07
2022-10-04T02:27:07.566Z,66.00
2022-10-04T02:29:34.323Z,66.10
2022-10-04T02:32:21.299Z,66.04
2022-10-04T02:34:47.948Z,65.94
2022-10-04T02:37:15.268Z,65.99
2022-10-04T02:39:49.990Z,65.98
2022-10-04T02:42:40.918Z,65.67
2022-10-04T02:45:43.072Z,66.05
2022-10-04T02:48:26.506Z,66.07
2022-10-04T02:50:55.824Z,65.92
2022-10-04T02:53:34.753Z,66.19
2022-10-04T02:56:02.619Z,66.17
2022-10-04T02:58:32.472Z,66.46
2022-10-04T03:01:00.640Z,66.42
2022-10-04T03:03:37.503Z,66.33
2022-10-04T03:06:15.575Z,66.46
2022-10-04T03:08:53.063Z,66.56
2022-10-04T03:11:24.795Z,66.77
2022-10-04T03:13:55.109Z,66.94
2022-10-04T03:16:22.577Z,66.91
2022-10-04T03:18:51.442Z,66.90
2022-10-04T03:21:20.844Z,67.04
2022-10-04T03:23:50.790Z,67.12
2022-10-04T03:26:36.454Z,67.00
2022-10-04T03:29:09.544Z,66.84
2022-10-04T03:31:42.816Z,67.02
2022-10-04T03:34:23.842Z,66.91
2022-10-04T03:36:56.043Z,66.78
2022-10-04T03:39:33.529Z,66.81
2022-10-04T03:42:10.358Z,66.78
2022-10-04T03:44:37.607Z,66.84
2022-10-04T03:47:13.042Z,66.69
2022-10-04T03:49:42.159Z,66.74
2022-10-04T03:52:20.033Z,66.78
2022-10-04T03:54:47.662Z,66.80
2022-10-04T03:57:14.150Z,66.72
2022-10-04T03:59:40.694Z,66.76
2022-10-04T04:02:36.293Z,66.29
2022-10-04T04:05:12.835Z,66.36
2022-10-04T04:07:45.777Z,66.12
2022-10-04T04:10:22.678Z,66.25
2022-10-04T04:12:58.040Z,66.03
2022-10-04T04:15:29.651Z,66.32
2022-10-04T04:17:59.792Z,65.91
2022-10-04T04:20:31.540Z,66.00
2022-10-04T04:23:02.007Z,65.85
2022-10-04T04:25:32.206Z,66.10
2022-10-04T04:28:12.153Z,66.06
2022-10-04T04:30:43.953Z,66.08
2022-10-04T04:33:22.974Z,66.01
2022-10-04T04:35:55.246Z,66.17
2022-10-04T04:38:24.446Z,66.16
2022-10-04T04:40:55.609Z,66.33
2022-10-04T04:43:26.730Z,65.86
2022-10-04T04:46:08.877Z,66.07
2022-10-04T04:48:45.077Z,66.41
2022-10-04T04:51:19.496Z,66.25
2022-10-04T04:53:47.733Z,66.41
2022-10-04T04:56:19.284Z,66.23
2022-10-04T04:58:48.436Z,66.62
2022-10-04T05:01:25.584Z,66.41
2022-10-04T05:04:05.506Z,66.38
2022-10-04T05:06:34.214Z,66.58
2022-10-04T05:09:00.912Z,66.48
2022-10-04T05:11:31.643Z,66.37
2022-10-04T05:14:03.158Z,66.49
2022-10-04T05:16:52.788Z,66.59
2022-10-04T05:19:28.456Z,66.48
2022-10-04T05:21:57.657Z,66.50
2022-10-04T05:24:28.222Z,66.55
2022-10-04T05:26:58.737Z,66.70
2022-10-04T05:29:28.275Z,66.84
2022-10-04T05:31:56.137Z,67.09
2022-10-04T05:34:29.124Z,66.85
2022-10-04T05:36:58.481Z,67.10
2022-10-04T05:39:33.231Z,67.02
2022-10-04T05:42:23.269Z,66.73
2022-10-04T05:44:54.695Z,66.98
2022-10-04T05:47:27.669Z,67.34
2022-10-04T05:49:59.995Z,67.42
2022-10-04T05:52:39.954Z,67.08
2022-10-04T05:55:12.141Z,67.36
2022-10-04T05:57:44.519Z,67.48
2022-10-04T06:00:20.891Z,67.56
2022-10-04T06:02:51.105Z,67.81
2022-10-04T06:05:28.910Z,67.83
2022-10-04T06:08:00.801Z,68.04
2022-10-04T06:10:42.190Z,67.94
2022-10-04T06:13:26.015Z,68.05
2022-10-04T06:16:12.677Z,68.03
2022-10-04T06:18:46.818Z,68.26
2022-10-04T06:21:24.402Z,68.62
2022-10-04T06:23:59.471Z,68.49
2022-10-04T06:26:33.591Z,68.45
2022-10-04T06:29:10.507Z,68.54
2022-10-04T06:31:58.638Z,68.58
2022-10-04T06:34:33.723Z,68.47
2022-10-04T06:37:33.120Z,68.60
2022-10-04T06:40:21.348Z,68.67
2022-10-04T06:43:16.499Z,68.39
2022-10-04T06:45:51.351Z,68.12
2022-10-04T06:48:23.631Z,67.95
2022-10-04T06:50:56.859Z,67.71
2022-10-04T06:53:46.574Z,67.99
2022-10-04T06:56:26.352Z,67.78
2022-10-04T06:59:31.693Z,67.65
2022-10-04T07:02:12.324Z,67.69
2022-10-04T07:05:07.942Z,67.52
2022-10-04T07:07:38.852Z,67.32
2022-10-04T07:10:17.190Z,67.08
2022-10-04T07:13:09.477Z,67.23
2022-10-04T07:15:59.514Z,67.17
2022-10-04T07:18:45.241Z,67.13
2022-10-04T07:21:16.534Z,67.22
2022-10-04T07:23:45.143Z,66.81
2022-10-04T07:26:39.088Z,66.77
2022-10-04T07:29:28.265Z,66.54
2022-10-04T07:32:32.588Z,66.43
2022-10-04T07:35:14.082Z,66.21
2022-10-04T07:38:03.391Z,66.15
2022-10-04T07:40:35.942Z,65.95
2022-10-04T07:43:26.876Z,66.51
2022-10-04T07:46:03.503Z,66.36
2022-10-04T07:48:30.001Z,66.30
2022-10-04T07:51:02.685Z,66.27
2022-10-04T07:53:46.894Z,66.06
2022-10-04T07:56:21.065Z,65.99
2022-10-04T07:59:04.305Z,66.06
2022-10-04T08:01:38.462Z,66.00
2022-10-04T08:04:04.850Z,65.85
2022-10-04T08:06:37.816Z,65.73
2022-10-04T08:09:04.083Z,65.84
2022-10-04T08:11:44.424Z,65.92
2022-10-04T08:14:36.149Z,65.63
2022-10-04T08:17:15.191Z,65.58
2022-10-04T08:19:54.333Z,65.59
2022-10-04T08:22:30.224Z,65.49
2022-10-04T08:25:05.810Z,65.53
2022-10-04T08:28:07.596Z,65.66
2022-10-04T08:30:52.627Z,65.60
2022-10-04T08:34:01.157Z,65.63
2022-10-04T08:36:52.565Z,65.48
2022-10-04T08:39:52.574Z,65.42
2022-10-04T08:42:34.045Z,65.33
2022-10-04T08:45:21.031Z,65.36
2022-10-04T08:48:11.517Z,65.37
2022-10-04T08:51:01.098Z,65.25
2022-10-04T08:53:30.435Z,64.60
2022-10-04T08:56:31.479Z,64.86
2022-10-04T08:59:22.383Z,64.46
2022-10-04T09:02:25.111Z,64.09
2022-10-04T09:05:14.540Z,63.92
2022-10-04T09:08:04.248Z,63.86
2022-10-04T09:10:57.246Z,63.13
2022-10-04T09:13:38.059Z,62.66
2022-10-04T09:16:17.200Z,62.12
2022-10-04T09:19:06.171Z,61.72
2022-10-04T09:22:01.642Z,61.42
2022-10-04T09:24:53.487Z,61.18
2022-10-04T09:27:55.684Z,61.21
2022-10-04T09:30:33.053Z,60.96
2022-10-04T09:33:14.219Z,60.66
2022-10-04T09:35:54.503Z,60.22
2022-10-04T09:38:44.617Z,60.25
2022-10-04T09:41:26.818Z,60.39
2022-10-04T09:44:30.964Z,59.89
2022-10-04T09:47:14.057Z,59.76
2022-10-04T09:49:59.302Z,59.74
2022-10-04T09:52:39.883Z,59.81
2022-10-04T09:55:23.488Z,60.04
2022-10-04T09:58:22.339Z,59.27
2022-10-04T10:00:56.764Z,58.93
2022-10-04T10:03:41.848Z,58.22
2022-10-04T10:06:48.624Z,58.25
2022-10-04T10:09:51.799Z,58.28
2022-10-04T10:12:42.623Z,57.93
2022-10-04T10:15:24.895Z,57.08
2022-10-04T10:17:57.942Z,57.68
2022-10-04T10:20:48.107Z,57.28
2022-10-04T10:24:01.932Z,57.28
2022-10-04T10:26:52.594Z,57.27
2022-10-04T10:29:40.777Z,56.93
2022-10-04T10:32:19.045Z,56.65
2022-10-04T10:35:19.521Z,56.22
2022-10-04T10:37:45.785Z,56.17
2022-10-04T10:40:40.954Z,56.27
2022-10-04T10:43:53.042Z,55.95
2022-10-04T10:46:42.739Z,56.21
2022-10-04T10:49:21.988Z,55.83
2022-10-04T10:52:25.423Z,55.20
2022-10-04T10:55:13.187Z,55.56
2022-10-04T10:57:58.562Z,54.77
2022-10-04T11:00:39.948Z,55.15
2022-10-04T11:03:21.818Z,54.27
2022-10-04T11:06:01.938Z,54.26
2022-10-04T11:09:06.441Z,54.67
2022-10-04T11:12:05.568Z,54.64
2022-10-04T11:14:47.108Z,53.24
2022-10-04T11:17:33.459Z,53.60
2022-10-04T11:20:05.193Z,53.06
2022-10-04T11:22:57.447Z,53.39
2022-10-04T11:25:34.832Z,53.23
2022-10-04T11:28:39.098Z,53.03
2022-10-04T11:31:27.288Z,52.59
2022-10-04T11:34:16.376Z,52.51
2022-10-04T11:37:13.779Z,52.86
2022-10-04T11:39:42.533Z,54.30
2022-10-04T11:42:28.651Z,53.24
2022-10-04T11:45:19.645Z,53.13
2022-10-04T11:47:51.634Z,52.82
2022-10-04T11:50:29.577Z,52.77
2022-10-04T11:53:27.177Z,52.46
2022-10-04T11:56:29.633Z,52.70
2022-10-04T11:59:08.499Z,52.20
2022-10-04T12:02:16.879Z,51.79
2022-10-04T12:04:54.079Z,51.16
2022-10-04T12:07:55.118Z,51.07
2022-10-04T12:10:29.058Z,50.44
2022-10-04T12:13:04.600Z,50.79
2022-10-04T12:15:41.641Z,50.41
2022-10-04T12:18:33.039Z,50.34
2022-10-04T12:21:28.961Z,51.02
2022-10-04T12:24:23.189Z,50.66
2022-10-04T12:27:02.743Z,49.63
2022-10-04T12:30:00.594Z,50.54
2022-10-04T12:32:45.146Z,50.26
2022-10-04T12:35:14.470Z,50.11
2022-10-04T12:38:19.833Z,49.77
2022-10-04T12:41:17.771Z,49.92
2022-10-04T12:44:03.358Z,49.44
2022-10-04T12:47:00.928Z,49.29
2022-10-04T12:50:09.594Z,49.58
2022-10-04T12:52:54.327Z,48.83
2022-10-04T12:55:43.500Z,48.84
2022-10-04T12:58:30.371Z,49.04
2022-10-04T13:01:11.085Z,48.20
2022-10-04T13:04:29.132Z,48.67
2022-10-04T13:07:14.071Z,48.83
2022-10-04T13:10:26.001Z,47.91
2022-10-04T13:13:16.980Z,48.07
2022-10-04T13:19:21.100Z,47.87
2022-10-04T13:22:06.450Z,47.68
2022-10-04T13:24:56.094Z,47.39
2022-10-04T13:27:38.878Z,47.53
2022-10-04T13:30:29.486Z,47.77
2022-10-04T13:33:09.915Z,48.16
2022-10-04T13:35:59.931Z,47.96
2022-10-04T13:39:07.223Z,47.71
2022-10-04T13:41:42.705Z,49.33
2022-10-04T13:44:33.354Z,47.90
2022-10-04T13:47:20.967Z,47.46
2022-10-04T13:50:17.471Z,46.74
2022-10-04T13:53:14.874Z,46.36
2022-10-04T13:56:18.609Z,46.47
2022-10-04T13:58:44.899Z,46.23
2022-10-04T14:01:29.935Z,46.31
2022-10-04T14:04:14.708Z,46.85
2022-10-04T14:07:13.608Z,46.80
2022-10-04T14:10:13.202Z,47.00
2022-10-04T14:12:59.446Z,47.09
2022-10-04T14:15:28.472Z,46.10
2022-10-04T14:18:35.855Z,46.50
2022-10-04T14:21:15.296Z,48.71
2022-10-04T14:24:15.088Z,46.84
2022-10-04T14:27:03.117Z,46.54
2022-10-04T14:29:52.668Z,46.70
2022-10-04T14:32:39.472Z,45.71
2022-10-04T14:35:30.046Z,46.23
2022-10-04T14:38:06.460Z,45.66
2022-10-04T14:40:44.910Z,45.61
2022-10-04T14:43:49.003Z,46.04
2022-10-04T14:46:33.719Z,45.51
2022-10-04T14:49:15.712Z,46.12
2022-10-04T14:51:51.212Z,45.77
2022-10-04T14:54:26.861Z,45.69
2022-10-04T14:57:03.443Z,46.04
2022-10-04T14:59:59.061Z,45.84
2022-10-04T15:02:31.729Z,45.74
2022-10-04T15:05:29.904Z,45.41
2022-10-04T15:08:15.731Z,45.91
2022-10-04T15:10:51.991Z,45.61
2022-10-04T15:13:39.671Z,45.94
2022-10-04T15:16:27.872Z,46.04
2022-10-04T15:19:00.116Z,46.25
2022-10-04T15:21:45.390Z,45.97
2022-10-04T15:24:17.883Z,46.26
2022-10-04T15:27:14.773Z,46.58
2022-10-04T15:30:00.041Z,47.95
2022-10-04T15:32:35.875Z,46.57
2022-10-04T15:35:11.585Z,47.93
2022-10-04T15:37:44.274Z,47.01
2022-10-04T15:40:58.035Z,47.08
2022-10-04T15:43:34.234Z,46.69
2022-10-04T15:46:24.105Z,46.74
2022-10-04T15:49:15.602Z,46.74
2022-10-04T15:52:07.268Z,46.67
2022-10-04T15:55:03.279Z,46.45
2022-10-04T15:57:35.883Z,46.63
2022-10-04T16:00:10.412Z,46.69
2022-10-04T16:03:27.517Z,47.11
2022-10-04T16:06:21.552Z,47.31
2022-10-04T16:09:06.562Z,46.97
2022-10-04T16:12:02.605Z,47.31
2022-10-04T16:15:01.235Z,47.31
2022-10-04T16:18:00.138Z,47.74
2022-10-04T16:20:48.240Z,47.21
2022-10-04T16:23:34.403Z,47.92
2022-10-04T16:26:16.000Z,47.50
2022-10-04T16:29:27.986Z,47.76
2022-10-04T16:32:04.046Z,47.72
2022-10-04T16:34:37.220Z,47.92
2022-10-04T16:37:09.555Z,47.93
2022-10-04T16:39:56.663Z,48.38
2022-10-04T16:42:29.414Z,48.60
2022-10-04T16:45:19.490Z,48.88
2022-10-04T16:47:48.662Z,48.91
2022-10-04T16:51:04.334Z,49.06
2022-10-04T16:53:36.667Z,49.35
2022-10-04T16:56:23.007Z,49.63
2022-10-04T16:59:04.267Z,49.84
2022-10-04T17:01:38.371Z,49.52
2022-10-04T17:04:04.823Z,49.89
2022-10-04T17:06:51.539Z,50.15
2022-10-04T17:09:43.286Z,50.17
2022-10-04T17:12:35.497Z,50.35
2022-10-04T17:15:14.031Z,50.04
2022-10-04T17:18:12.427Z,50.53
2022-10-04T17:20:42.973Z,50.74
2022-10-04T17:23:51.371Z,50.92
2022-10-04T17:26:40.802Z,51.03
2022-10-04T17:29:40.967Z,51.09
2022-10-04T17:32:16.390Z,51.29
2022-10-04T17:35:09.803Z,51.18
2022-10-04T17:38:11.834Z,51.44
2022-10-04T17:41:19.592Z,51.56
2022-10-04T17:43:55.998Z,51.93
2022-10-04T17:46:40.929Z,51.98
2022-10-04T17:49:41.788Z,52.40
2022-10-04T17:52:41.360Z,52.20
2022-10-04T17:55:18.213Z,52.67
2022-10-04T17:58:08.064Z,53.05
2022-10-04T18:01:15.242Z,52.89
2022-10-04T18:03:47.221Z,53.02
2022-10-04T18:06:25.397Z,53.15
2022-10-04T18:09:02.969Z,53.47
2022-10-04T18:11:47.070Z,53.60
2022-10-04T18:14:42.477Z,53.66
2022-10-04T18:17:23.010Z,53.81
2022-10-04T18:20:17.423Z,53.99
2022-10-04T18:22:49.890Z,53.89
2022-10-04T18:25:26.739Z,54.15
2022-10-04T18:28:19.848Z,54.47
2022-10-04T18:30:46.144Z,54.67
2022-10-04T18:33:16.422Z,55.01
2022-10-04T18:36:14.692Z,55.12
2022-10-04T18:38:43.579Z,55.26
2022-10-04T18:41:16.149Z,55.35
2022-10-04T18:43:51.830Z,55.71
2022-10-04T18:46:22.648Z,55.55
2022-10-04T18:49:08.630Z,55.86
2022-10-04T18:51:51.084Z,55.63
2022-10-04T18:54:51.755Z,55.77
2022-10-04T18:57:56.351Z,56.15
2022-10-04T19:00:42.367Z,56.18
2022-10-04T19:03:37.160Z,56.17
2022-10-04T19:06:21.006Z,56.48
2022-10-04T19:08:59.429Z,56.30
2022-10-04T19:11:38.338Z,56.67
2022-10-04T19:14:25.488Z,56.86
2022-10-04T19:17:01.626Z,56.76
2022-10-04T19:19:46.107Z,57.06
2022-10-04T19:22:29.390Z,56.93
2022-10-04T19:25:17.750Z,57.49
2022-10-04T19:28:00.727Z,57.38
2022-10-04T19:30:54.034Z,57.53
2022-10-04T19:33:35.962Z,57.63
2022-10-04T19:36:11.796Z,57.56
2022-10-04T19:38:52.371Z,57.90
2022-10-04T19:41:56.385Z,57.95
2022-10-04T19:44:36.775Z,57.94
2022-10-04T19:47:24.983Z,57.73
2022-10-04T19:50:06.587Z,58.08
2022-10-04T19:52:46.668Z,57.98
2022-10-04T19:55:43.731Z,57.95
2022-10-04T19:58:21.387Z,57.97
2022-10-04T20:00:49.363Z,58.30
2022-10-04T20:03:16.447Z,58.06
2022-10-04T20:05:48.643Z,58.52
2022-10-04T20:08:17.137Z,58.57
2022-10-04T20:10:43.791Z,58.64
2022-10-04T20:13:21.404Z,58.85
2022-10-04T20:15:53.203Z,58.79
2022-10-04T20:18:31.733Z,58.83
2022-10-04T20:20:59.974Z,58.93
2022-10-04T20:23:41.599Z,59.03
2022-10-04T20:26:10.022Z,59.15
2022-10-04T20:28:40.562Z,59.43
2022-10-04T20:31:08.839Z,59.65
2022-10-04T20:33:36.904Z,59.97
2022-10-04T20:36:09.218Z,59.68
2022-10-04T20:38:59.305Z,59.77
2022-10-04T20:41:28.461Z,59.71
2022-10-04T20:43:56.842Z,60.08
2022-10-04T20:46:25.804Z,59.94
2022-10-04T20:48:54.261Z,59.93
2022-10-04T20:51:22.646Z,59.88
2022-10-04T20:53:52.373Z,59.99
2022-10-04T20:56:33.176Z,59.88
2022-10-04T20:59:01.714Z,60.04
2022-10-04T21:01:36.963Z,59.92
2022-10-04T21:04:29.973Z,59.90
2022-10-04T21:07:02.246Z,60.11
2022-10-04T21:09:31.019Z,59.95
2022-10-04T21:11:58.722Z,60.08
2022-10-04T21:14:27.819Z,60.14
2022-10-04T21:17:01.464Z,60.09
2022-10-04T21:19:42.996Z,60.06
2022-10-04T21:22:29.571Z,60.08
2022-10-04T21:24:57.546Z,60.56
2022-10-04T21:27:32.543Z,60.21
2022-10-04T21:30:00.790Z,60.27
2022-10-04T21:32:32.338Z,60.44
2022-10-04T21:34:58.686Z,60.35
2022-10-04T21:37:25.081Z,60.60
2022-10-04T21:39:51.471Z,60.39
2022-10-04T21:42:17.973Z,60.45
2022-10-04T21:44:44.543Z,60.49
2022-10-04T21:47:11.038Z,60.68
2022-10-04T21:49:37.398Z,60.89
2022-10-04T21:52:04.180Z,60.65
2022-10-04T21:54:30.618Z,61.01
2022-10-04T21:56:57.035Z,61.04
2022-10-04T21:59:23.811Z,61.02
2022-10-04T22:01:50.321Z,61.19
2022-10-04T22:04:16.769Z,61.21
2022-10-04T22:06:44.039Z,61.13
2022-10-04T22:09:11.012Z,60.92
2022-10-04T22:11:37.639Z,61.22
2022-10-04T22:14:04.348Z,60.89
2022-10-04T22:16:30.864Z,61.27
2022-10-04T22:18:57.254Z,61.22
2022-10-04T22:21:23.627Z,61.39
2022-10-04T22:23:49.983Z,61.27
2022-10-04T22:26:19.342Z,61.50
2022-10-04T22:28:54.846Z,61.47
2022-10-04T22:31:25.863Z,61.31
2022-10-04T22:33:53.515Z,61.56
2022-10-04T22:36:39.137Z,61.54
2022-10-04T22:39:08.563Z,61.76
2022-10-04T22:41:40.930Z,61.92
2022-10-04T22:44:23.351Z,61.85
2022-10-04T22:46:52.814Z,62.13
2022-10-04T22:49:33.980Z,62.16
2022-10-04T22:52:03.450Z,62.19
2022-10-04T22:54:34.821Z,62.07
2022-10-04T22:57:01.195Z,62.62
2022-10-04T22:59:35.817Z,62.23
2022-10-04T23:02:16.188Z,62.06
2022-10-04T23:05:16.667Z,62.28
2022-10-04T23:07:44.436Z,62.51
2022-10-04T23:10:12.723Z,62.57
2022-10-04T23:12:40.672Z,62.71
2022-10-04T23:15:07.897Z,62.67
2022-10-04T23:17:37.160Z,62.71
2022-10-04T23:20:09.698Z,62.38
2022-10-04T23:22:36.058Z,62.85
2022-10-04T23:25:02.460Z,62.77
2022-10-04T23:27:29.204Z,62.83
2022-10-04T23:30:02.767Z,62.92
2022-10-04T23:32:31.739Z,62.80
2022-10-04T23:35:00.512Z,62.82
2022-10-04T23:37:30.868Z,62.81
2022-10-04T23:39:57.253Z,62.83
2022-10-04T23:42:31.765Z,62.72
2022-10-04T23:44:59.907Z,62.91
2022-10-04T23:47:37.143Z,62.82
2022-10-04T23:50:27.594Z,62.74
2022-10-04T23:52:58.110Z,63.02
2022-10-04T23:55:28.998Z,62.60
2022-10-04T23:57:55.992Z,62.86
